LFOE 181530Z AUTO 30010KT 260V340 9999 FEW046 27/15 Q1015 NOSIG

ElémentsDécodage
LFOE Station météo située sur l'aérodrome de EVREUX Fauville
181530Z émis le 18 du mois à 15h30 UTC
AUTO Bulletin édité par un automate
30010KT vent du 300°, 10 noeuds
260V340 vent de direction variable entre 260° et 340°
9999 visibilité horizontale supérieure à 10 Km
FEW046 nuages rares (1/8 à 2/8) à 4600 pieds
27/15 température 27°C, point de rosée 15°C
 soit une humidité relative de 48%
Q1015 la pression au niveau de la mer (QNH) est de 1015 hPa
NOSIG Pas de changement significatif prévu au cours des deux heures suivant l'heure de l'observation